Time;durP1;ratioP1;P1;durP2;ratioP2;P2;SDS_P1;SDS_P2;PMS_P1;PMS_P2;Temp;Humidity;BMP_temperature;BMP_pressure;BME280_temperature;BME280_humidity;BME280_pressure;Samples;Min_cycle;Max_cycle;Signal;HPM_P1;HPM_P2
2021/11/29 00:02:03;;;;;;;19.00;11.00;;;;;;;6.65;100.00;99341.47;4983634;28;20173;-65
2021/11/29 00:04:49;;;;;;;17.52;11.48;;;;;;;6.73;100.00;99336.97;4985975;28;20492;-68
2021/11/29 00:07:34;;;;;;;15.95;11.13;;;;;;;6.85;100.00;99339.47;4987532;28;20052;-64
2021/11/29 00:10:19;;;;;;;15.80;11.32;;;;;;;6.77;100.00;99343.94;4987225;28;20116;-64
2021/11/29 00:13:04;;;;;;;19.27;10.30;;;;;;;6.78;100.00;99329.88;4988350;28;20061;-62
2021/11/29 00:15:49;;;;;;;15.88;10.73;;;;;;;6.87;100.00;99330.66;4986518;28;20092;-62
2021/11/29 00:18:36;;;;;;;18.00;11.10;;;;;;;6.91;100.00;99327.09;4986392;28;20057;-70
2021/11/29 00:21:22;;;;;;;16.45;10.70;;;;;;;6.83;100.00;99318.41;4986534;28;20151;-63
2021/11/29 00:24:07;;;;;;;14.73;10.48;;;;;;;6.70;100.00;99308.03;4984677;28;20120;-63
2021/11/29 00:26:52;;;;;;;17.17;10.68;;;;;;;6.76;100.00;99303.56;4986170;28;20056;-63
2021/11/29 00:29:37;;;;;;;16.25;10.88;;;;;;;6.76;100.00;99314.09;4985348;28;20089;-63
2021/11/29 00:32:22;;;;;;;15.55;10.18;;;;;;;6.60;100.00;99299.34;4986461;28;20109;-64
2021/11/29 00:35:08;;;;;;;15.35;10.07;;;;;;;6.69;100.00;99298.38;4966911;28;20056;-64
2021/11/29 00:37:52;;;;;;;17.10;10.27;;;;;;;6.65;100.00;99307.22;4986176;28;20462;-67
2021/11/29 00:40:39;;;;;;;19.98;11.38;;;;;;;6.63;100.00;99301.97;4988406;28;20535;-63
2021/11/29 00:43:24;;;;;;;17.63;10.93;;;;;;;6.61;100.00;99301.09;4985988;28;20503;-62
2021/11/29 00:46:09;;;;;;;15.52;10.50;;;;;;;6.65;100.00;99304.59;4979562;28;20410;-76
2021/11/29 00:48:54;;;;;;;20.10;11.02;;;;;;;6.42;100.00;99293.44;4960301;28;20053;-62
2021/11/29 00:51:39;;;;;;;17.55;11.35;;;;;;;6.47;100.00;99284.59;4985019;28;20064;-63
2021/11/29 00:54:23;;;;;;;19.20;11.77;;;;;;;6.21;100.00;99269.97;4986734;28;20133;-62
2021/11/29 00:57:08;;;;;;;19.38;11.80;;;;;;;6.26;100.00;99279.56;4985900;28;20113;-67
2021/11/29 00:59:53;;;;;;;19.40;11.70;;;;;;;6.35;100.00;99284.72;4986220;28;20081;-63
2021/11/29 01:02:38;;;;;;;19.08;12.05;;;;;;;6.44;100.00;99281.13;4976686;28;20050;-63
2021/11/29 01:05:24;;;;;;;22.05;12.50;;;;;;;6.27;100.00;99265.53;4986541;28;20419;-62
2021/11/29 01:08:08;;;;;;;20.33;12.82;;;;;;;6.29;100.00;99265.50;4985852;28;20057;-62
2021/11/29 01:10:53;;;;;;;20.25;12.57;;;;;;;6.38;100.00;99268.03;4980436;28;20088;-63
2021/11/29 01:13:39;;;;;;;25.98;14.40;;;;;;;6.45;100.00;99265.28;4986841;28;20521;-63
2021/11/29 01:16:25;;;;;;;21.65;13.95;;;;;;;6.42;100.00;99251.31;4985668;28;20104;-67
2021/11/29 01:19:10;;;;;;;20.98;13.82;;;;;;;6.44;100.00;99249.53;4986624;28;20050;-61
2021/11/29 01:21:55;;;;;;;23.85;14.20;;;;;;;6.51;100.00;99245.91;4985570;28;20049;-62
2021/11/29 01:24:40;;;;;;;25.02;14.52;;;;;;;6.57;100.00;99240.59;4987864;28;20499;-62
2021/11/29 01:27:24;;;;;;;22.50;13.68;;;;;;;6.64;100.00;99245.75;4972447;28;20057;-63
2021/11/29 01:30:12;;;;;;;24.58;14.68;;;;;;;6.78;100.00;99233.28;4987611;28;20057;-62
2021/11/29 01:32:56;;;;;;;25.65;14.57;;;;;;;6.70;100.00;99226.38;4985745;28;20053;-62
2021/11/29 01:35:41;;;;;;;23.63;14.07;;;;;;;6.68;100.00;99228.16;4985060;28;20565;-65
2021/11/29 01:38:26;;;;;;;26.67;15.18;;;;;;;6.66;100.00;99199.19;4971155;28;20054;-61
2021/11/29 01:41:13;;;;;;;25.48;15.25;;;;;;;6.67;100.00;99205.31;4984103;28;20061;-61
2021/11/29 01:43:59;;;;;;;26.00;14.70;;;;;;;6.79;100.00;99223.59;4985930;28;20478;-65
2021/11/29 01:46:45;;;;;;;24.08;14.65;;;;;;;6.80;100.00;99220.94;4986610;28;20620;-63
2021/11/29 01:49:30;;;;;;;23.85;15.07;;;;;;;6.70;100.00;99221.97;4983117;28;20061;-64
2021/11/29 01:52:15;;;;;;;26.67;14.80;;;;;;;6.62;100.00;99213.31;4986243;28;20142;-60
2021/11/29 01:55:00;;;;;;;27.65;16.15;;;;;;;6.53;100.00;99213.41;4984961;28;20108;-62
2021/11/29 01:57:46;;;;;;;29.88;16.33;;;;;;;6.56;100.00;99220.41;4987856;28;20062;-61
2021/11/29 02:00:34;;;;;;;38.38;17.02;;;;;;;6.60;100.00;99219.50;4985379;28;20053;-60
2021/11/29 02:03:23;;;;;;;29.83;16.08;;;;;;;6.63;100.00;99220.31;4985345;28;20053;-61
2021/11/29 02:06:09;;;;;;;29.45;17.88;;;;;;;6.59;100.00;99217.72;4986743;28;20108;-63
2021/11/29 02:08:55;;;;;;;29.95;17.08;;;;;;;6.48;100.00;99203.84;4970119;28;20462;-64
2021/11/29 02:11:40;;;;;;;27.88;16.42;;;;;;;6.44;100.00;99204.78;4987013;28;20105;-61
2021/11/29 02:14:25;;;;;;;28.73;15.60;;;;;;;6.45;100.00;99207.38;4985612;28;20081;-61
2021/11/29 02:17:09;;;;;;;29.90;16.60;;;;;;;6.39;100.00;99202.19;4987224;28;20128;-61
2021/11/29 02:19:56;;;;;;;32.92;16.10;;;;;;;6.41;100.00;99208.28;4985409;28;20153;-61
2021/11/29 02:22:43;;;;;;;33.67;16.42;;;;;;;6.39;100.00;99193.41;4984919;28;20050;-67
2021/11/29 02:25:30;;;;;;;31.00;16.10;;;;;;;6.45;100.00;99204.72;4986888;28;20700;-62
2021/11/29 02:28:19;;;;;;;33.13;16.00;;;;;;;6.38;100.00;99192.56;4985434;28;20058;-61
2021/11/29 02:31:11;;;;;;;29.50;15.68;;;;;;;6.31;100.00;99188.25;4972147;28;20058;-63
2021/11/29 02:33:56;;;;;;;29.50;15.93;;;;;;;6.41;100.00;99196.91;4982303;28;20058;-61
2021/11/29 02:36:41;;;;;;;25.30;15.25;;;;;;;6.56;100.00;99194.09;4990974;28;20073;-62
2021/11/29 02:39:28;;;;;;;29.70;15.65;;;;;;;6.58;100.00;99185.25;4985958;28;20050;-70
2021/11/29 02:42:14;;;;;;;28.88;16.08;;;;;;;6.57;100.00;99180.00;4975454;28;20054;-63
2021/11/29 02:44:59;;;;;;;30.45;15.50;;;;;;;6.53;100.00;99167.78;4989868;28;20096;-64
2021/11/29 02:47:44;;;;;;;29.75;16.48;;;;;;;6.60;100.00;99177.34;4975601;28;20046;-64
2021/11/29 02:50:37;;;;;;;28.63;16.00;;;;;;;6.65;100.00;99163.19;4987894;28;20089;-68
2021/11/29 02:53:21;;;;;;;27.00;15.52;;;;;;;6.42;100.00;99170.56;4993003;28;20463;-65
2021/11/29 02:56:07;;;;;;;33.38;16.60;;;;;;;6.37;100.00;99171.50;4974627;28;20568;-66
2021/11/29 02:58:51;;;;;;;34.03;17.60;;;;;;;6.20;100.00;99176.97;4989122;28;20148;-65
2021/11/29 03:01:39;;;;;;;34.75;17.75;;;;;;;6.22;100.00;99175.22;4975653;28;20049;-63
2021/11/29 03:04:27;;;;;;;35.03;16.88;;;;;;;6.34;100.00;99161.88;4988626;28;20469;-64
2021/11/29 03:07:14;;;;;;;36.80;17.70;;;;;;;6.43;100.00;99158.25;4989581;28;20049;-65
2021/11/29 03:09:58;;;;;;;41.38;18.63;;;;;;;6.40;100.00;99164.44;4985193;28;20131;-62
2021/11/29 03:12:43;;;;;;;38.47;18.98;;;;;;;6.37;100.00;99158.34;4989079;28;20050;-61
2021/11/29 03:15:28;;;;;;;38.10;19.92;;;;;;;6.28;100.00;99150.53;4975721;28;20138;-64
2021/11/29 03:18:12;;;;;;;48.42;19.83;;;;;;;6.25;100.00;99164.63;4988757;28;20057;-67
2021/11/29 03:20:58;;;;;;;39.72;20.00;;;;;;;6.17;100.00;99163.84;4969909;28;20061;-61
2021/11/29 03:23:48;;;;;;;45.08;21.20;;;;;;;6.05;100.00;99161.34;4985670;28;20101;-63
2021/11/29 03:26:36;;;;;;;44.38;19.73;;;;;;;6.14;100.00;99155.13;4989206;28;20080;-69
2021/11/29 03:29:21;;;;;;;46.03;19.23;;;;;;;6.27;100.00;99151.44;4989113;28;20124;-67
2021/11/29 03:32:10;;;;;;;42.63;20.58;;;;;;;6.27;100.00;99147.06;4975219;28;20180;-70
2021/11/29 03:34:55;;;;;;;41.03;19.45;;;;;;;6.11;100.00;99139.38;4988344;28;20096;-70
2021/11/29 03:37:41;;;;;;;43.20;19.23;;;;;;;6.26;100.00;99147.97;4971641;28;20741;-68
2021/11/29 03:40:26;;;;;;;43.58;19.88;;;;;;;6.22;100.00;99148.00;4985441;28;20053;-68
2021/11/29 03:43:10;;;;;;;41.40;19.00;;;;;;;6.30;100.00;99132.97;4960109;28;20053;-69
2021/11/29 03:45:55;;;;;;;39.95;18.50;;;;;;;6.36;100.00;99128.50;4987793;28;20368;-70
2021/11/29 03:48:39;;;;;;;46.67;20.15;;;;;;;6.29;100.00;99126.84;4987147;28;20073;-67
2021/11/29 03:51:24;;;;;;;42.70;19.67;;;;;;;6.25;100.00;99127.75;4985862;28;20101;-71
2021/11/29 03:54:10;;;;;;;46.28;19.58;;;;;;;6.32;100.00;99128.56;4987637;28;20049;-69
2021/11/29 03:56:54;;;;;;;42.25;19.90;;;;;;;6.38;100.00;99120.59;4987522;28;20065;-70
2021/11/29 03:59:39;;;;;;;45.50;19.95;;;;;;;6.43;100.00;99130.16;4987746;28;20050;-65
2021/11/29 04:02:25;;;;;;;48.78;20.67;;;;;;;6.39;100.00;99128.47;4986625;28;20136;-63
2021/11/29 04:05:09;;;;;;;44.75;19.17;;;;;;;6.38;100.00;99116.19;4987890;28;20065;-68
2021/11/29 04:07:54;;;;;;;44.00;19.58;;;;;;;6.36;100.00;99107.44;4988313;28;20570;-62
2021/11/29 04:10:40;;;;;;;42.80;19.42;;;;;;;6.38;100.00;99104.78;4986397;28;20061;-76
2021/11/29 04:13:24;;;;;;;39.42;19.17;;;;;;;6.43;100.00;99113.47;4975735;28;20053;-68
2021/11/29 04:16:12;;;;;;;41.53;19.23;;;;;;;6.38;100.00;99113.56;4986963;28;20146;-72
2021/11/29 04:18:58;;;;;;;47.78;19.27;;;;;;;6.45;100.00;99112.56;4987035;28;20053;-67
2021/11/29 04:21:44;;;;;;;38.28;18.77;;;;;;;6.42;100.00;99104.75;4986696;28;20053;-67
2021/11/29 04:24:29;;;;;;;36.90;17.52;;;;;;;6.40;100.00;99098.59;4988736;28;20048;-71
2021/11/29 04:27:15;;;;;;;37.38;16.98;;;;;;;6.48;100.00;99099.38;4979394;28;20125;-66
2021/11/29 04:30:05;;;;;;;41.67;18.45;;;;;;;6.48;100.00;99106.41;4981939;28;20104;-76
2021/11/29 04:32:53;;;;;;;42.67;18.38;;;;;;;6.55;100.00;99106.28;4973663;28;20057;-66
2021/11/29 04:35:39;;;;;;;42.22;17.35;;;;;;;6.32;100.00;99104.84;4988683;28;20112;-71
2021/11/29 04:38:23;;;;;;;44.80;19.15;;;;;;;6.48;100.00;99104.63;4988202;28;20645;-72
2021/11/29 04:41:08;;;;;;;44.85;20.98;;;;;;;6.61;100.00;99106.19;4974171;28;20057;-67
2021/11/29 04:43:53;;;;;;;43.38;18.95;;;;;;;6.64;100.00;99114.06;4985468;28;20096;-67
2021/11/29 04:46:37;;;;;;;41.00;18.92;;;;;;;6.48;100.00;99106.41;4972195;28;20088;-67
2021/11/29 04:49:22;;;;;;;43.38;19.00;;;;;;;6.48;100.00;99106.41;4970555;28;20100;-64
2021/11/29 04:52:08;;;;;;;41.33;19.40;;;;;;;6.59;100.00;99108.00;4986010;28;20061;-71
2021/11/29 04:54:53;;;;;;;38.88;18.52;;;;;;;6.59;100.00;99110.63;4986235;28;20057;-72
2021/11/29 04:57:38;;;;;;;41.72;19.05;;;;;;;6.72;100.00;99104.25;4986564;28;20711;-67
2021/11/29 05:00:24;;;;;;;41.90;19.08;;;;;;;6.83;100.00;99102.34;4995856;28;20053;-72
2021/11/29 05:03:09;;;;;;;43.15;18.77;;;;;;;6.54;100.00;99104.56;4974920;28;20470;-64
2021/11/29 05:05:54;;;;;;;44.53;20.38;;;;;;;6.51;100.00;99094.06;4960790;28;20065;-70
2021/11/29 05:08:39;;;;;;;42.00;18.50;;;;;;;6.57;100.00;99093.97;4973316;28;20073;-69
2021/11/29 05:11:24;;;;;;;46.28;20.27;;;;;;;6.63;100.00;99088.63;4988164;28;20081;-65
2021/11/29 05:14:09;;;;;;;37.75;18.95;;;;;;;6.56;100.00;99086.09;4979398;28;20441;-65
2021/11/29 05:16:53;;;;;;;42.58;18.98;;;;;;;6.64;100.00;99085.06;4985572;28;20057;-66
2021/11/29 05:19:38;;;;;;;38.35;16.98;;;;;;;6.58;100.00;99071.13;4987104;28;20101;-65
2021/11/29 05:22:23;;;;;;;36.47;17.92;;;;;;;6.58;100.00;99077.28;4983781;28;20049;-63
2021/11/29 05:25:09;;;;;;;41.17;18.77;;;;;;;6.49;100.00;99080.03;4972771;28;20068;-68
2021/11/29 05:27:54;;;;;;;43.80;18.67;;;;;;;6.58;100.00;99084.31;4980371;28;20077;-63
2021/11/29 05:30:39;;;;;;;40.85;18.40;;;;;;;6.60;100.00;99082.53;4971047;28;20053;-64
2021/11/29 05:33:25;;;;;;;41.13;18.80;;;;;;;6.57;100.00;99080.78;4986026;28;20053;-65
2021/11/29 05:36:10;;;;;;;46.10;18.45;;;;;;;6.64;100.00;99074.53;4985280;28;20093;-65
2021/11/29 05:38:55;;;;;;;40.00;17.60;;;;;;;6.73;100.00;99074.38;4986535;28;20049;-66
2021/11/29 05:41:40;;;;;;;39.70;18.90;;;;;;;6.74;100.00;99073.53;4984511;28;20537;-65
2021/11/29 05:44:25;;;;;;;40.65;18.70;;;;;;;6.67;100.00;99076.25;4971845;28;20145;-65
2021/11/29 05:47:09;;;;;;;41.28;19.25;;;;;;;6.67;100.00;99086.78;4986250;28;20056;-64
2021/11/29 05:49:54;;;;;;;42.95;18.88;;;;;;;6.75;100.00;99077.88;4985080;28;20108;-61
2021/11/29 05:52:39;;;;;;;;;;;;;;;6.88;100.00;99081.19;4986350;28;20089;-64
2021/11/29 05:55:24;;;;;;;39.92;18.30;;;;;;;6.82;100.00;99073.38;4983248;28;20099;-70
2021/11/29 05:58:08;;;;;;;37.17;16.35;;;;;;;6.82;100.00;99070.75;4986505;28;20061;-61
2021/11/29 06:00:53;;;;;;;41.65;18.02;;;;;;;6.60;100.00;99062.31;4985897;28;20053;-63
2021/11/29 06:03:38;;;;;;;46.08;19.50;;;;;;;6.65;100.00;99071.00;4985111;28;20565;-62
2021/11/29 06:06:23;;;;;;;43.85;18.67;;;;;;;6.81;100.00;99061.97;4977480;28;20568;-62
2021/11/29 06:09:08;;;;;;;36.33;17.23;;;;;;;6.93;100.00;99055.63;4985293;28;20062;-61
2021/11/29 06:11:54;;;;;;;37.22;17.48;;;;;;;6.91;100.00;99045.13;4971987;28;20525;-63
2021/11/29 06:14:40;;;;;;;36.20;16.80;;;;;;;6.97;100.00;99049.41;4984373;28;20104;-66
2021/11/29 06:17:26;;;;;;;38.03;16.95;;;;;;;7.00;100.00;99047.59;4984740;28;20142;-63
2021/11/29 06:20:19;;;;;;;41.55;18.55;;;;;;;6.96;100.00;99048.53;4983124;28;20573;-64
2021/11/29 06:23:04;;;;;;;40.72;18.63;;;;;;;7.01;100.00;99046.69;4981746;28;20049;-67
2021/11/29 06:25:50;;;;;;;39.85;17.90;;;;;;;7.12;100.00;99028.06;4970464;28;20053;-63
2021/11/29 06:28:35;;;;;;;41.15;19.10;;;;;;;7.14;100.00;99026.25;4983221;28;20192;-71
2021/11/29 06:31:20;;;;;;;43.35;19.60;;;;;;;6.83;100.00;99019.78;4971459;28;20137;-62
2021/11/29 06:34:05;;;;;;;46.30;19.42;;;;;;;6.80;100.00;99020.72;4984583;28;20619;-63
2021/11/29 06:36:50;;;;;;;42.85;19.58;;;;;;;6.91;100.00;99012.63;4970871;28;20091;-63
2021/11/29 06:39:36;;;;;;;;;;;;;;;7.03;100.00;99020.31;4984777;28;20321;-65
2021/11/29 06:42:20;;;;;;;48.92;20.58;;;;;;;6.94;100.00;99004.66;4984329;28;20337;-68
2021/11/29 06:45:05;;;;;;;46.95;20.70;;;;;;;6.94;100.00;99010.81;4975642;28;20117;-66
2021/11/29 06:47:51;;;;;;;45.95;20.75;;;;;;;7.03;100.00;98994.84;4984093;28;20053;-73
2021/11/29 06:50:36;;;;;;;46.17;21.50;;;;;;;6.99;100.00;98987.88;4984442;28;20054;-65
2021/11/29 06:53:23;;;;;;;47.33;20.40;;;;;;;6.96;100.00;98985.28;4982671;28;20085;-65
2021/11/29 06:56:09;;;;;;;48.72;21.98;;;;;;;6.96;100.00;98989.72;4976853;28;20478;-64
2021/11/29 06:58:54;;;;;;;48.22;21.60;;;;;;;7.01;100.00;98982.59;4957093;28;20100;-61
2021/11/29 07:01:38;;;;;;;50.13;21.33;;;;;;;7.02;100.00;98989.59;4984003;28;20061;-63
2021/11/29 07:04:23;;;;;;;45.33;20.55;;;;;;;7.04;100.00;98979.91;4985317;28;20057;-64
2021/11/29 07:07:07;;;;;;;58.10;23.52;;;;;;;7.07;100.00;98961.38;4982534;28;20156;-65
2021/11/29 07:09:51;;;;;;;46.33;22.17;;;;;;;7.16;100.00;98964.69;4985690;28;20068;-64
2021/11/29 07:12:37;;;;;;;47.30;21.63;;;;;;;7.09;100.00;98960.47;4976763;28;20409;-63
2021/11/29 07:15:25;;;;;;;45.28;19.83;;;;;;;7.08;100.00;98960.50;4986304;28;20113;-62
2021/11/29 07:18:11;;;;;;;48.17;21.33;;;;;;;7.02;100.00;98950.94;4984531;28;20052;-63
2021/11/29 07:20:58;;;;;;;52.65;23.42;;;;;;;7.04;100.00;98951.75;4983732;28;20049;-67
2021/11/29 07:23:43;;;;;;;48.70;21.40;;;;;;;7.10;100.00;98933.22;4982552;28;20100;-60
2021/11/29 07:26:27;;;;;;;50.50;22.65;;;;;;;6.91;100.00;98941.47;4986184;28;20101;-62
2021/11/29 07:29:14;;;;;;;46.00;20.65;;;;;;;6.81;100.00;98934.66;4988910;28;20060;-54
2021/11/29 07:31:59;;;;;;;47.38;21.38;;;;;;;6.89;100.00;98946.75;4956592;28;20049;-63
2021/11/29 07:34:44;;;;;;;51.85;21.77;;;;;;;6.91;100.00;98937.09;4956069;28;20054;-63
2021/11/29 07:37:29;;;;;;;48.13;19.88;;;;;;;7.06;100.00;98925.38;4981555;28;20097;-64
2021/11/29 07:40:16;;;;;;;51.30;21.70;;;;;;;7.25;100.00;98924.13;4998857;28;20053;-71
2021/11/29 07:43:05;;;;;;;44.33;20.23;;;;;;;7.42;100.00;98914.09;4985482;28;20052;-63
2021/11/29 07:45:51;;;;;;;48.40;20.38;;;;;;;7.47;100.00;98928.03;4986191;28;20045;-64
2021/11/29 07:48:36;;;;;;;45.20;20.75;;;;;;;7.25;100.00;98914.47;5001143;28;20176;-66
2021/11/29 07:51:21;;;;;;;42.75;19.60;;;;;;;7.34;100.00;98908.09;4986734;28;20069;-63
2021/11/29 07:54:07;;;;;;;41.53;19.52;;;;;;;7.40;100.00;98914.09;4998391;28;20081;-62
2021/11/29 07:56:51;;;;;;;46.78;20.85;;;;;;;7.46;100.00;98903.44;4983983;28;20060;-65
2021/11/29 07:59:37;;;;;;;43.00;19.50;;;;;;;7.63;100.00;98890.75;4985173;28;20645;-63
2021/11/29 08:02:23;;;;;;;46.75;19.85;;;;;;;7.58;100.00;98883.84;4988228;28;20073;-64
2021/11/29 08:05:08;;;;;;;40.13;18.63;;;;;;;7.56;100.00;98885.66;4986683;28;20905;-62
2021/11/29 08:07:56;;;;;;;37.40;17.67;;;;;;;7.65;100.00;98888.97;4985377;28;20053;-63
2021/11/29 08:10:41;;;;;;;39.40;18.85;;;;;;;7.71;100.00;98880.88;4981217;28;20121;-68
2021/11/29 08:13:26;;;;;;;38.92;19.45;;;;;;;7.82;100.00;98865.69;4985270;28;20128;-63
2021/11/29 08:16:10;;;;;;;42.95;19.75;;;;;;;7.90;100.00;98870.78;4987797;28;21038;-64
2021/11/29 08:18:55;;;;;;;38.20;18.90;;;;;;;7.73;100.00;98855.34;4983154;28;20184;-64
2021/11/29 08:21:40;;;;;;;43.40;19.55;;;;;;;7.77;100.00;98849.09;4987302;28;20731;-60
2021/11/29 08:24:24;;;;;;;43.50;18.75;;;;;;;7.76;100.00;98841.22;4986538;28;20049;-64
2021/11/29 08:27:11;;;;;;;40.05;18.55;;;;;;;7.86;100.00;98833.03;4987439;28;20053;-61
2021/11/29 08:29:56;;;;;;;41.30;18.38;;;;;;;7.95;100.00;98829.31;4986735;28;20056;-60
2021/11/29 08:32:42;;;;;;;42.78;19.02;;;;;;;7.84;100.00;98823.44;4983665;28;20054;-62
2021/11/29 08:35:27;;;;;;;35.40;17.67;;;;;;;7.85;100.00;98817.25;4977229;28;20050;-61
2021/11/29 08:38:18;;;;;;;41.10;19.83;;;;;;;7.71;100.00;98816.72;4982826;28;20137;-61
2021/11/29 08:41:04;;;;;;;43.28;21.13;;;;;;;7.71;100.00;98811.44;4986778;28;20554;-57
2021/11/29 08:43:50;;;;;;;41.78;19.33;;;;;;;7.84;100.00;98804.97;4984087;28;20427;-62
2021/11/29 08:46:35;;;;;;;40.85;19.45;;;;;;;8.00;100.00;98811.59;4981529;28;20057;-62
2021/11/29 08:49:21;;;;;;;35.65;18.95;;;;;;;7.95;100.00;98813.50;4986732;28;20097;-56
2021/11/29 08:52:06;;;;;;;38.50;18.27;;;;;;;7.92;100.00;98803.84;4985760;28;20097;-60
2021/11/29 08:54:51;;;;;;;;;;;;;;;7.81;100.00;98811.19;4985194;28;20398;-62
2021/11/29 08:57:37;;;;;;;31.95;16.65;;;;;;;7.88;100.00;98798.69;4988173;28;19976;-60
2021/11/29 09:00:22;;;;;;;35.67;17.50;;;;;;;7.97;100.00;98788.78;4971591;28;20057;-64
2021/11/29 09:03:08;;;;;;;35.10;17.52;;;;;;;8.09;100.00;98779.69;4994958;28;20053;-64
2021/11/29 09:05:55;;;;;;;36.05;17.88;;;;;;;8.14;100.00;98778.66;4993336;28;20096;-62
2021/11/29 09:08:40;;;;;;;33.67;17.35;;;;;;;8.14;100.00;98770.72;4987387;28;20101;-62
2021/11/29 09:11:25;;;;;;;34.38;16.65;;;;;;;7.97;100.00;98775.59;4984944;28;20828;-62
2021/11/29 09:14:10;;;;;;;34.80;16.63;;;;;;;8.09;100.00;98766.47;4997783;28;20049;-66
2021/11/29 09:16:57;;;;;;;34.72;16.60;;;;;;;8.12;100.00;98761.97;4985328;28;20137;-73
2021/11/29 09:19:42;;;;;;;31.02;15.70;;;;;;;8.12;100.00;98748.78;4983047;28;20097;-67
2021/11/29 09:22:26;;;;;;;34.45;17.00;;;;;;;8.04;100.00;98752.53;4985716;28;20049;-64
2021/11/29 09:25:12;;;;;;;31.65;15.80;;;;;;;8.20;100.00;98760.00;4969354;28;20120;-62
2021/11/29 09:27:56;;;;;;;28.33;15.85;;;;;;;8.12;100.00;98759.31;4985025;28;20053;-62
2021/11/29 09:30:43;;;;;;;27.02;14.77;;;;;;;8.04;100.00;98745.47;4997880;28;20065;-65
2021/11/29 09:33:32;;;;;;;31.98;16.10;;;;;;;7.96;100.00;98742.16;4980865;28;20129;-66
2021/11/29 09:36:18;;;;;;;30.48;16.58;;;;;;;8.02;100.00;98736.72;4984373;28;20104;-63
2021/11/29 09:39:05;;;;;;;29.25;15.27;;;;;;;8.10;100.00;98736.53;4982694;28;20116;-65
2021/11/29 09:41:50;;;;;;;31.85;16.77;;;;;;;8.13;100.00;98734.69;4981999;28;20048;-67
2021/11/29 09:44:35;;;;;;;31.67;16.20;;;;;;;7.95;100.00;98724.59;4997578;28;21122;-65
2021/11/29 09:47:21;;;;;;;32.58;17.65;;;;;;;8.07;100.00;98729.56;4985352;28;20053;-63
2021/11/29 09:50:08;;;;;;;33.42;16.98;;;;;;;8.10;100.00;98732.13;4983189;28;20057;-64
2021/11/29 09:52:54;;;;;;;34.08;17.10;;;;;;;8.02;100.00;98725.28;4980397;28;20074;-58
2021/11/29 09:55:39;;;;;;;31.88;17.05;;;;;;;8.12;100.00;98727.66;4984937;28;20484;-64
2021/11/29 09:58:24;;;;;;;33.78;17.30;;;;;;;8.12;100.00;98721.53;4981230;28;20061;-68
2021/11/29 10:01:10;;;;;;;42.03;20.90;;;;;;;7.88;100.00;98730.09;4982208;28;20112;-66
2021/11/29 10:03:54;;;;;;;42.13;18.95;;;;;;;7.93;100.00;98718.50;4982403;28;20080;-67
2021/11/29 10:06:39;;;;;;;36.88;18.75;;;;;;;7.96;100.00;98713.13;4977691;28;20065;-72
2021/11/29 10:09:34;;;;;;;34.75;18.67;;;;;;;8.08;100.00;98719.88;4986381;28;20065;-65
2021/11/29 10:12:18;;;;;;;35.95;18.23;;;;;;;7.83;100.00;98702.97;4977182;28;20085;-65
2021/11/29 10:15:13;;;;;;;36.90;17.90;;;;;;;7.81;100.00;98696.84;4985626;28;20060;-65
2021/11/29 10:18:22;;;;;;;33.97;17.08;;;;;;;7.95;100.00;98703.47;4983255;28;20050;-64
2021/11/29 10:21:10;;;;;;;30.50;16.60;;;;;;;8.03;100.00;98701.50;4971800;28;20101;-64
2021/11/29 10:24:00;;;;;;;27.98;14.70;;;;;;;7.93;100.00;98694.75;4970112;28;20057;-65
2021/11/29 10:26:55;;;;;;;28.27;14.93;;;;;;;8.01;100.00;98687.50;4985902;28;20151;-63
2021/11/29 10:29:50;;;;;;;30.02;15.65;;;;;;;7.98;100.00;98668.22;4985971;28;20058;-63
2021/11/29 10:32:42;;;;;;;31.13;15.30;;;;;;;8.09;100.00;98672.31;4985526;28;20046;-63
2021/11/29 10:35:36;;;;;;;30.73;15.00;;;;;;;8.26;100.00;98678.03;4984292;28;20049;-65
2021/11/29 10:38:30;;;;;;;24.27;13.00;;;;;;;8.16;100.00;98675.66;4986123;28;20124;-62
2021/11/29 10:41:26;;;;;;;21.63;12.77;;;;;;;8.22;100.00;98678.13;4983226;28;20050;-66
2021/11/29 10:44:17;;;;;;;;;;;;;;;8.18;100.00;98669.41;4985227;28;20418;-66
2021/11/29 10:47:18;;;;;;;36.85;15.75;;;;;;;8.10;100.00;98671.41;4984800;28;19943;-65
2021/11/29 10:50:06;;;;;;;30.27;16.05;;;;;;;8.09;100.00;98650.31;4988701;28;20065;-64
2021/11/29 10:53:08;;;;;;;21.35;12.13;;;;;;;8.16;100.00;98646.59;4983316;28;20100;-62
2021/11/29 10:56:00;;;;;;;21.13;11.88;;;;;;;8.14;100.00;98640.50;4982582;28;20587;-74
2021/11/29 10:58:48;;;;;;;21.35;12.00;;;;;;;8.17;100.00;98638.66;4983439;28;20057;-68
2021/11/29 11:01:39;;;;;;;25.25;12.40;;;;;;;8.05;100.00;98635.47;4978442;28;20953;-65
2021/11/29 11:04:35;;;;;;;24.05;12.98;;;;;;;8.10;100.00;98623.00;4982932;28;20128;-75
2021/11/29 11:07:24;;;;;;;;;;;;;;;8.12;100.00;98614.13;4985602;28;20049;-60
2021/11/29 11:10:14;;;;;;;26.95;14.30;;;;;;;8.06;100.00;98611.69;4991649;28;19937;-66
2021/11/29 11:13:00;;;;;;;31.60;16.48;;;;;;;8.12;100.00;98608.00;4985705;28;20138;-74
2021/11/29 11:15:44;;;;;;;38.80;18.13;;;;;;;8.20;100.00;98606.84;4987481;28;20049;-65
2021/11/29 11:18:39;;;;;;;32.30;17.20;;;;;;;8.20;100.00;98584.88;4994618;28;20101;-63
2021/11/29 11:21:24;;;;;;;37.42;17.80;;;;;;;8.15;100.00;98598.22;4988475;28;20045;-67
2021/11/29 11:24:26;;;;;;;35.17;17.25;;;;;;;8.12;100.00;98587.72;4983795;28;20658;-68
2021/11/29 11:27:12;;;;;;;37.30;18.52;;;;;;;8.14;100.00;98583.28;4981408;28;20112;-67
2021/11/29 11:30:00;;;;;;;41.25;19.88;;;;;;;8.27;100.00;98582.03;4985725;28;20198;-64
2021/11/29 11:32:58;;;;;;;42.90;20.73;;;;;;;8.35;100.00;98574.75;4988217;28;20048;-70
2021/11/29 11:35:47;;;;;;;42.03;20.92;;;;;;;8.34;100.00;98578.31;4963377;28;20073;-64
2021/11/29 11:38:32;;;;;;;44.22;20.10;;;;;;;8.34;100.00;98569.50;4984027;28;20138;-63
2021/11/29 11:41:17;;;;;;;44.47;20.38;;;;;;;8.40;100.00;98564.06;4999868;28;20100;-65
2021/11/29 11:44:04;;;;;;;40.50;20.20;;;;;;;8.50;100.00;98565.50;4997673;28;20053;-73
2021/11/29 11:46:51;;;;;;;37.97;19.27;;;;;;;8.44;100.00;98558.66;4981472;28;20506;-66
2021/11/29 11:49:43;;;;;;;42.25;19.95;;;;;;;8.41;100.00;98549.94;4992495;28;20092;-67
2021/11/29 11:52:28;;;;;;;40.35;20.73;;;;;;;8.40;100.00;98540.28;4985293;28;20141;-63
2021/11/29 11:55:17;;;;;;;40.53;19.27;;;;;;;8.44;100.00;98540.16;4986930;28;20049;-63
2021/11/29 11:58:14;;;;;;;42.50;19.90;;;;;;;8.47;100.00;98531.28;4993126;28;20077;-65
2021/11/29 12:01:04;;;;;;;35.17;18.30;;;;;;;8.39;100.00;98518.28;4984696;28;20057;-71
2021/11/29 12:03:50;;;;;;;39.35;17.40;;;;;;;8.42;100.00;98522.59;4973475;28;20128;-63
2021/11/29 12:06:36;;;;;;;30.73;15.93;;;;;;;8.42;100.00;98514.69;4983057;28;20048;-63
2021/11/29 12:09:30;;;;;;;34.05;16.30;;;;;;;8.44;100.00;98512.88;4998584;28;20069;-66
2021/11/29 12:12:15;;;;;;;27.33;14.48;;;;;;;8.25;100.00;98511.72;4984425;28;20559;-66
2021/11/29 12:15:16;;;;;;;28.00;13.52;;;;;;;8.32;100.00;98513.25;4984260;28;20068;-71
2021/11/29 12:18:01;;;;;;;23.55;13.15;;;;;;;8.33;100.00;98505.28;4992587;28;20052;-61
2021/11/29 12:21:24;;;;;;;23.63;12.93;;;;;;;8.30;100.00;98500.09;4987095;28;20502;-62
2021/11/29 12:24:14;;;;;;;22.67;12.38;;;;;;;8.30;100.00;98486.03;4962927;28;20057;-63
2021/11/29 12:27:06;;;;;;;23.38;13.43;;;;;;;8.45;100.00;98482.91;4977674;28;20136;-72
2021/11/29 12:29:59;;;;;;;24.30;12.95;;;;;;;8.56;100.00;98478.13;4993090;28;20053;-65
2021/11/29 12:33:01;;;;;;;23.67;12.43;;;;;;;8.60;100.00;98474.47;4970772;28;20426;-62
2021/11/29 12:35:58;;;;;;;22.73;12.18;;;;;;;8.57;100.00;98478.09;4983620;28;20625;-66
2021/11/29 12:38:48;;;;;;;21.30;11.05;;;;;;;8.52;100.00;98466.81;4984378;28;20628;-66
2021/11/29 12:41:39;;;;;;;19.17;10.38;;;;;;;8.50;100.00;98466.00;4986302;28;20509;-64
2021/11/29 12:45:00;;;;;;;20.88;11.27;;;;;;;8.53;100.00;98452.69;4976962;28;20177;-63
2021/11/29 12:47:47;;;;;;;21.55;11.80;;;;;;;8.45;100.00;98449.44;4983448;28;20049;-63
2021/11/29 12:50:42;;;;;;;25.25;13.70;;;;;;;8.54;100.00;98451.78;4985030;28;20061;-65